Amstetten, Austria

5:14 AM CET on January 28, 2015 (GMT +0100)
DBSolutions, Winklarn, Austria | Change Station
CLOSE
Current Station
Personal Weather Station
Location: Winklarn, NIEDERöSTERREICH
Elevation: 1050 ft
Nearby Weather Stations

Elev 1050 ft 48.09 °N, 14.85 °E | Updated 15 seconds ago

Light Snow
Light Snow
33.6 °F
Feels Like 34 °F
N
0.0
Wind Variable Wind from NE
Gusts 0.0 mph

Today
High -- | Low -- °F
--% Chance of Precip.
Yesterday
High -- | Low -- °F
Precip. -- in
7:34 AM 4:53 PM
First Quarter, 60% visible
Pressure 30.09 in
Visibility 6.2 miles
Clouds Scattered Clouds 1200 ft
Mostly Cloudy 2300 ft
Windchill 34 °F
Dew Point 26 °F
Humidity 72%
Rainfall 0.00 in
Snow Depth Not available.
UV 0.0 out of 12
Pollen Not available.
Air Quality Not available.
Flu Activity Not available.
METAR LOWL 280350Z 24007KT 9999 -SN SCT012 BKN023 01/M00 Q1019 TEMPO 4000 BKN012

More Conditions Fewer Conditions

Pressure 30.09 in
Visibility 6.2 miles
Clouds Scattered Clouds 1200 ft
Mostly Cloudy 2300 ft
Windchill 34 °F
Dew Point 26 °F
Humidity 72%
Rainfall 0.00 in
Snow Depth Not available.
UV 0.0 out of 12
Pollen Not available.
Air Quality Not available.
Flu Activity Not available.
METAR LOWL 280350Z 24007KT 9999 -SN SCT012 BKN023 01/M00 Q1019 TEMPO 4000 BKN012

More Conditions Fewer Conditions

10-Day Weather Forecast

Almanac

Astronomy

Jan. 28, 2015 Rise Set
Actual Time
Civil Twilight
Nautical Twilight
Astronomical Twilight
Moon
Length of Visible Light
Length of Day
Tomorrow will be .
, % of the Moon is Illuminated

Today's Extremes

Country Highs Country Lows

Community

WunderPhotos

Upload Photos

1,791,086 photos uploaded!

WunderBlogs® & News

Nearby

Air Quality

  Air Quality AQ Index Pollutant
Not available.

Snow Depth

Station Depth Elevation

Earthquake Activity

City Distance Mag. Time & Date
Minimum magnitude displayed is 2.5.

Coastal Water Temperatures

Place Temperature

Nearby Weather Stations